sensor_id;sensor_type;location;lat;lon;timestamp;P1;durP1;ratioP1;P2;durP2;ratioP2
1991;SDS011;997;48.448;8.924;2023-06-04T10:41:34;5.00;;;4.30;;
1991;SDS011;997;48.448;8.924;2023-06-04T10:44:00;5.03;;;4.63;;
1991;SDS011;997;48.448;8.924;2023-06-04T10:46:36;5.63;;;4.20;;
1991;SDS011;997;48.448;8.924;2023-06-04T10:49:04;4.13;;;3.80;;
1991;SDS011;997;48.448;8.924;2023-06-04T10:51:31;3.80;;;3.50;;
1991;SDS011;997;48.448;8.924;2023-06-04T10:53:58;4.80;;;4.33;;
1991;SDS011;997;48.448;8.924;2023-06-04T10:56:30;5.50;;;5.00;;
1991;SDS011;997;48.448;8.924;2023-06-04T10:59:12;5.47;;;4.87;;
1991;SDS011;997;48.448;8.924;2023-06-04T11:01:39;6.80;;;4.40;;
1991;SDS011;997;48.448;8.924;2023-06-04T11:04:05;5.00;;;3.90;;
1991;SDS011;997;48.448;8.924;2023-06-04T11:06:31;7.33;;;4.10;;
1991;SDS011;997;48.448;8.924;2023-06-04T11:09:04;4.90;;;4.50;;
1991;SDS011;997;48.448;8.924;2023-06-04T11:11:31;5.27;;;4.80;;
1991;SDS011;997;48.448;8.924;2023-06-04T11:14:06;7.97;;;4.80;;
1991;SDS011;997;48.448;8.924;2023-06-04T11:16:33;5.23;;;4.83;;
1991;SDS011;997;48.448;8.924;2023-06-04T11:18:59;4.80;;;4.40;;
1991;SDS011;997;48.448;8.924;2023-06-04T11:21:25;8.83;;;5.07;;
1991;SDS011;997;48.448;8.924;2023-06-04T11:24:00;7.40;;;4.77;;
1991;SDS011;997;48.448;8.924;2023-06-04T11:26:32;4.73;;;4.23;;
1991;SDS011;997;48.448;8.924;2023-06-04T11:28:59;5.23;;;4.70;;
1991;SDS011;997;48.448;8.924;2023-06-04T11:31:26;5.13;;;4.63;;
1991;SDS011;997;48.448;8.924;2023-06-04T11:33:52;5.90;;;5.40;;
1991;SDS011;997;48.448;8.924;2023-06-04T11:36:25;6.23;;;5.57;;
1991;SDS011;997;48.448;8.924;2023-06-04T11:41:20;6.17;;;5.20;;
1991;SDS011;997;48.448;8.924;2023-06-04T11:43:49;6.00;;;5.50;;
1991;SDS011;997;48.448;8.924;2023-06-04T11:46:15;5.53;;;5.10;;
1991;SDS011;997;48.448;8.924;2023-06-04T11:48:41;5.80;;;5.30;;
1991;SDS011;997;48.448;8.924;2023-06-04T11:51:08;5.37;;;4.87;;
1991;SDS011;997;48.448;8.924;2023-06-04T11:53:36;5.43;;;5.00;;
1991;SDS011;997;48.448;8.924;2023-06-04T11:56:03;6.20;;;5.60;;
1991;SDS011;997;48.448;8.924;2023-06-04T11:58:29;5.33;;;4.93;;
1991;SDS011;997;48.448;8.924;2023-06-04T12:00:57;6.00;;;5.20;;
1991;SDS011;997;48.448;8.924;2023-06-04T12:03:36;5.23;;;4.80;;
1991;SDS011;997;48.448;8.924;2023-06-04T12:06:15;5.80;;;4.83;;
1991;SDS011;997;48.448;8.924;2023-06-04T12:11:30;4.90;;;4.50;;
1991;SDS011;997;48.448;8.924;2023-06-04T12:13:58;5.60;;;5.10;;
1991;SDS011;997;48.448;8.924;2023-06-04T12:16:25;5.10;;;4.70;;
1991;SDS011;997;48.448;8.924;2023-06-04T12:18:51;6.20;;;5.70;;
1991;SDS011;997;48.448;8.924;2023-06-04T12:23:47;6.50;;;4.93;;
1991;SDS011;997;48.448;8.924;2023-06-04T12:26:22;6.57;;;5.30;;
1991;SDS011;997;48.448;8.924;2023-06-04T12:29:00;7.03;;;5.40;;
1991;SDS011;997;48.448;8.924;2023-06-04T12:31:27;5.67;;;5.10;;
1991;SDS011;997;48.448;8.924;2023-06-04T12:33:58;6.00;;;5.10;;
1991;SDS011;997;48.448;8.924;2023-06-04T12:36:25;7.00;;;5.20;;
1991;SDS011;997;48.448;8.924;2023-06-04T12:38:50;5.90;;;5.20;;
1991;SDS011;997;48.448;8.924;2023-06-04T12:41:16;4.53;;;4.23;;
1991;SDS011;997;48.448;8.924;2023-06-04T12:43:42;4.50;;;4.20;;
1991;SDS011;997;48.448;8.924;2023-06-04T12:46:07;5.27;;;4.77;;
1991;SDS011;997;48.448;8.924;2023-06-04T12:48:33;6.60;;;5.03;;
1991;SDS011;997;48.448;8.924;2023-06-04T12:50:59;5.97;;;5.47;;
1991;SDS011;997;48.448;8.924;2023-06-04T12:53:25;5.60;;;4.90;;
1991;SDS011;997;48.448;8.924;2023-06-04T12:55:50;6.97;;;4.83;;
1991;SDS011;997;48.448;8.924;2023-06-04T12:58:16;8.60;;;5.87;;
1991;SDS011;997;48.448;8.924;2023-06-04T13:00:42;5.80;;;5.30;;
1991;SDS011;997;48.448;8.924;2023-06-04T13:03:08;5.43;;;5.03;;
1991;SDS011;997;48.448;8.924;2023-06-04T13:05:33;5.90;;;5.40;;
1991;SDS011;997;48.448;8.924;2023-06-04T13:08:00;5.60;;;5.20;;
1991;SDS011;997;48.448;8.924;2023-06-04T13:10:27;7.90;;;4.90;;
1991;SDS011;997;48.448;8.924;2023-06-04T13:12:52;6.70;;;5.20;;
1991;SDS011;997;48.448;8.924;2023-06-04T13:15:18;9.30;;;5.60;;
1991;SDS011;997;48.448;8.924;2023-06-04T13:17:44;6.17;;;5.53;;
1991;SDS011;997;48.448;8.924;2023-06-04T13:20:10;6.70;;;5.50;;
1991;SDS011;997;48.448;8.924;2023-06-04T13:22:36;5.40;;;4.90;;
1991;SDS011;997;48.448;8.924;2023-06-04T13:25:02;5.17;;;4.67;;
1991;SDS011;997;48.448;8.924;2023-06-04T13:27:27;5.17;;;4.77;;
1991;SDS011;997;48.448;8.924;2023-06-04T13:29:53;6.37;;;4.70;;
1991;SDS011;997;48.448;8.924;2023-06-04T13:32:19;5.40;;;4.23;;
1991;SDS011;997;48.448;8.924;2023-06-04T13:34:44;5.30;;;4.90;;
1991;SDS011;997;48.448;8.924;2023-06-04T13:37:10;6.13;;;4.43;;
1991;SDS011;997;48.448;8.924;2023-06-04T13:39:37;4.93;;;4.60;;
1991;SDS011;997;48.448;8.924;2023-06-04T13:42:03;5.70;;;4.80;;
1991;SDS011;997;48.448;8.924;2023-06-04T13:44:29;6.37;;;5.80;;
1991;SDS011;997;48.448;8.924;2023-06-04T13:46:54;6.03;;;5.47;;
1991;SDS011;997;48.448;8.924;2023-06-04T13:49:22;7.10;;;5.10;;
1991;SDS011;997;48.448;8.924;2023-06-04T13:51:48;6.90;;;5.23;;
1991;SDS011;997;48.448;8.924;2023-06-04T13:54:13;5.53;;;5.00;;
1991;SDS011;997;48.448;8.924;2023-06-04T13:56:39;5.07;;;4.67;;
1991;SDS011;997;48.448;8.924;2023-06-04T13:59:05;5.70;;;5.20;;
1991;SDS011;997;48.448;8.924;2023-06-04T14:01:31;5.67;;;5.17;;
1991;SDS011;997;48.448;8.924;2023-06-04T14:03:57;6.70;;;4.60;;
1991;SDS011;997;48.448;8.924;2023-06-04T14:06:23;5.70;;;5.20;;
1991;SDS011;997;48.448;8.924;2023-06-04T14:08:50;5.17;;;4.77;;
1991;SDS011;997;48.448;8.924;2023-06-04T14:11:15;6.20;;;5.70;;
1991;SDS011;997;48.448;8.924;2023-06-04T14:13:41;7.57;;;5.63;;
1991;SDS011;997;48.448;8.924;2023-06-04T14:16:10;5.63;;;5.20;;
1991;SDS011;997;48.448;8.924;2023-06-04T14:18:35;6.13;;;5.30;;
1991;SDS011;997;48.448;8.924;2023-06-04T14:21:01;6.87;;;5.40;;
1991;SDS011;997;48.448;8.924;2023-06-04T14:23:27;6.03;;;5.53;;
1991;SDS011;997;48.448;8.924;2023-06-04T14:25:52;7.47;;;5.40;;
1991;SDS011;997;48.448;8.924;2023-06-04T14:28:18;5.20;;;4.20;;
1991;SDS011;997;48.448;8.924;2023-06-04T14:30:45;4.70;;;4.30;;
1991;SDS011;997;48.448;8.924;2023-06-04T14:33:11;4.90;;;4.47;;
1991;SDS011;997;48.448;8.924;2023-06-04T14:35:37;5.17;;;4.67;;
1991;SDS011;997;48.448;8.924;2023-06-04T14:38:11;5.00;;;4.50;;
1991;SDS011;997;48.448;8.924;2023-06-04T14:40:38;4.70;;;4.30;;
1991;SDS011;997;48.448;8.924;2023-06-04T14:43:04;5.17;;;4.73;;
1991;SDS011;997;48.448;8.924;2023-06-04T14:45:30;5.20;;;4.80;;
1991;SDS011;997;48.448;8.924;2023-06-04T14:47:55;7.13;;;4.50;;
1991;SDS011;997;48.448;8.924;2023-06-04T14:50:21;4.93;;;4.53;;
1991;SDS011;997;48.448;8.924;2023-06-04T14:52:47;5.00;;;4.60;;
1991;SDS011;997;48.448;8.924;2023-06-04T14:55:13;5.97;;;5.40;;
1991;SDS011;997;48.448;8.924;2023-06-04T14:57:38;5.83;;;5.37;;
1991;SDS011;997;48.448;8.924;2023-06-04T15:00:05;7.00;;;6.43;;
1991;SDS011;997;48.448;8.924;2023-06-04T15:02:31;5.87;;;4.20;;
1991;SDS011;997;48.448;8.924;2023-06-04T15:04:57;5.23;;;4.83;;
1991;SDS011;997;48.448;8.924;2023-06-04T15:07:23;8.73;;;5.10;;
1991;SDS011;997;48.448;8.924;2023-06-04T15:09:48;5.43;;;5.03;;
1991;SDS011;997;48.448;8.924;2023-06-04T15:12:14;5.50;;;4.90;;
1991;SDS011;997;48.448;8.924;2023-06-04T15:14:42;5.53;;;5.13;;
1991;SDS011;997;48.448;8.924;2023-06-04T15:17:07;7.13;;;4.20;;
1991;SDS011;997;48.448;8.924;2023-06-04T15:19:34;5.07;;;4.60;;
1991;SDS011;997;48.448;8.924;2023-06-04T15:22:00;5.13;;;4.73;;
1991;SDS011;997;48.448;8.924;2023-06-04T15:24:26;4.80;;;4.43;;
1991;SDS011;997;48.448;8.924;2023-06-04T15:26:51;5.37;;;4.97;;
1991;SDS011;997;48.448;8.924;2023-06-04T15:29:17;5.10;;;4.70;;
1991;SDS011;997;48.448;8.924;2023-06-04T15:31:42;5.13;;;4.73;;
1991;SDS011;997;48.448;8.924;2023-06-04T15:34:08;5.43;;;5.03;;
1991;SDS011;997;48.448;8.924;2023-06-04T15:36:34;5.03;;;4.53;;
1991;SDS011;997;48.448;8.924;2023-06-04T15:39:00;4.97;;;4.50;;
1991;SDS011;997;48.448;8.924;2023-06-04T15:41:26;4.90;;;4.50;;
1991;SDS011;997;48.448;8.924;2023-06-04T15:43:51;5.40;;;5.00;;
1991;SDS011;997;48.448;8.924;2023-06-04T15:46:18;4.50;;;4.10;;
1991;SDS011;997;48.448;8.924;2023-06-04T15:48:44;4.70;;;4.40;;
1991;SDS011;997;48.448;8.924;2023-06-04T15:51:09;7.83;;;5.20;;
1991;SDS011;997;48.448;8.924;2023-06-04T15:53:35;8.50;;;4.47;;
1991;SDS011;997;48.448;8.924;2023-06-04T15:56:01;4.67;;;4.37;;
1991;SDS011;997;48.448;8.924;2023-06-04T15:58:26;4.53;;;4.13;;
1991;SDS011;997;48.448;8.924;2023-06-04T16:00:52;4.97;;;4.57;;
1991;SDS011;997;48.448;8.924;2023-06-04T16:03:18;5.33;;;4.90;;
1991;SDS011;997;48.448;8.924;2023-06-04T16:05:43;5.23;;;4.83;;
1991;SDS011;997;48.448;8.924;2023-06-04T16:08:09;5.50;;;4.77;;
1991;SDS011;997;48.448;8.924;2023-06-04T16:10:35;5.07;;;4.60;;
1991;SDS011;997;48.448;8.924;2023-06-04T16:13:00;4.93;;;4.53;;
1991;SDS011;997;48.448;8.924;2023-06-04T16:15:26;5.13;;;4.63;;
1991;SDS011;997;48.448;8.924;2023-06-04T16:17:51;7.87;;;4.97;;
1991;SDS011;997;48.448;8.924;2023-06-04T16:20:17;5.40;;;4.90;;
1991;SDS011;997;48.448;8.924;2023-06-04T16:22:43;4.40;;;4.10;;
1991;SDS011;997;48.448;8.924;2023-06-04T16:25:10;5.87;;;5.27;;
1991;SDS011;997;48.448;8.924;2023-06-04T16:27:42;5.80;;;4.50;;
1991;SDS011;997;48.448;8.924;2023-06-04T16:30:09;7.83;;;5.10;;
1991;SDS011;997;48.448;8.924;2023-06-04T16:32:34;5.33;;;4.47;;
1991;SDS011;997;48.448;8.924;2023-06-04T16:35:00;5.53;;;4.77;;
1991;SDS011;997;48.448;8.924;2023-06-04T16:37:37;5.13;;;4.73;;
1991;SDS011;997;48.448;8.924;2023-06-04T16:42:38;5.43;;;4.93;;
1991;SDS011;997;48.448;8.924;2023-06-04T16:45:04;4.63;;;4.13;;
1991;SDS011;997;48.448;8.924;2023-06-04T16:47:30;4.10;;;3.70;;
1991;SDS011;997;48.448;8.924;2023-06-04T16:49:56;4.00;;;3.70;;
1991;SDS011;997;48.448;8.924;2023-06-04T16:52:23;4.67;;;3.80;;
1991;SDS011;997;48.448;8.924;2023-06-04T16:54:49;5.07;;;3.80;;
1991;SDS011;997;48.448;8.924;2023-06-04T16:57:14;4.07;;;3.77;;
1991;SDS011;997;48.448;8.924;2023-06-04T16:59:44;4.50;;;4.10;;
1991;SDS011;997;48.448;8.924;2023-06-04T17:02:10;4.83;;;4.03;;
1991;SDS011;997;48.448;8.924;2023-06-04T17:04:36;3.43;;;3.23;;
1991;SDS011;997;48.448;8.924;2023-06-04T17:07:02;4.20;;;3.90;;
1991;SDS011;997;48.448;8.924;2023-06-04T17:09:28;5.40;;;4.03;;
1991;SDS011;997;48.448;8.924;2023-06-04T17:11:53;3.70;;;3.40;;
1991;SDS011;997;48.448;8.924;2023-06-04T17:14:19;4.43;;;3.77;;
1991;SDS011;997;48.448;8.924;2023-06-04T17:16:45;3.90;;;3.60;;
1991;SDS011;997;48.448;8.924;2023-06-04T17:19:11;3.90;;;3.60;;
1991;SDS011;997;48.448;8.924;2023-06-04T17:21:36;4.47;;;4.07;;
1991;SDS011;997;48.448;8.924;2023-06-04T17:24:03;4.60;;;3.95;;
1991;SDS011;997;48.448;8.924;2023-06-04T17:26:29;4.30;;;4.00;;
1991;SDS011;997;48.448;8.924;2023-06-04T17:28:54;3.80;;;3.50;;
1991;SDS011;997;48.448;8.924;2023-06-04T17:31:20;4.87;;;3.67;;
1991;SDS011;997;48.448;8.924;2023-06-04T17:33:48;3.80;;;3.50;;
1991;SDS011;997;48.448;8.924;2023-06-04T17:36:15;4.27;;;3.97;;
1991;SDS011;997;48.448;8.924;2023-06-04T17:38:44;7.50;;;3.67;;
1991;SDS011;997;48.448;8.924;2023-06-04T17:41:11;4.20;;;3.87;;
1991;SDS011;997;48.448;8.924;2023-06-04T17:43:38;4.33;;;4.00;;
1991;SDS011;997;48.448;8.924;2023-06-04T17:46:06;4.20;;;3.80;;
1991;SDS011;997;48.448;8.924;2023-06-04T17:48:32;4.43;;;3.77;;
1991;SDS011;997;48.448;8.924;2023-06-04T17:50:57;4.20;;;3.80;;
1991;SDS011;997;48.448;8.924;2023-06-04T17:53:23;7.57;;;4.03;;
1991;SDS011;997;48.448;8.924;2023-06-04T17:55:49;4.60;;;4.07;;
1991;SDS011;997;48.448;8.924;2023-06-04T17:58:15;4.07;;;3.70;;
1991;SDS011;997;48.448;8.924;2023-06-04T18:00:41;4.13;;;3.83;;
1991;SDS011;997;48.448;8.924;2023-06-04T18:03:07;4.43;;;4.10;;
1991;SDS011;997;48.448;8.924;2023-06-04T18:05:36;5.80;;;3.60;;
1991;SDS011;997;48.448;8.924;2023-06-04T18:08:02;4.20;;;3.30;;
1991;SDS011;997;48.448;8.924;2023-06-04T18:10:28;4.13;;;3.83;;
1991;SDS011;997;48.448;8.924;2023-06-04T18:12:54;3.77;;;3.47;;
1991;SDS011;997;48.448;8.924;2023-06-04T18:15:19;5.83;;;3.80;;
1991;SDS011;997;48.448;8.924;2023-06-04T18:17:45;6.43;;;4.47;;
1991;SDS011;997;48.448;8.924;2023-06-04T18:20:11;5.00;;;4.37;;
1991;SDS011;997;48.448;8.924;2023-06-04T18:22:37;5.50;;;3.73;;
1991;SDS011;997;48.448;8.924;2023-06-04T18:25:03;3.70;;;3.40;;
1991;SDS011;997;48.448;8.924;2023-06-04T18:27:32;4.10;;;3.57;;
1991;SDS011;997;48.448;8.924;2023-06-04T18:30:05;4.50;;;3.93;;
1991;SDS011;997;48.448;8.924;2023-06-04T18:32:31;4.13;;;3.80;;
1991;SDS011;997;48.448;8.924;2023-06-04T18:34:58;4.67;;;4.23;;
1991;SDS011;997;48.448;8.924;2023-06-04T18:37:24;5.57;;;4.30;;
1991;SDS011;997;48.448;8.924;2023-06-04T18:39:49;4.60;;;3.90;;
1991;SDS011;997;48.448;8.924;2023-06-04T18:42:15;5.47;;;4.00;;
1991;SDS011;997;48.448;8.924;2023-06-04T18:44:42;4.57;;;4.03;;
1991;SDS011;997;48.448;8.924;2023-06-04T18:47:08;3.67;;;3.37;;
1991;SDS011;997;48.448;8.924;2023-06-04T18:49:34;4.27;;;3.87;;
1991;SDS011;997;48.448;8.924;2023-06-04T18:52:00;4.60;;;3.67;;
1991;SDS011;997;48.448;8.924;2023-06-04T18:54:26;4.83;;;3.57;;
1991;SDS011;997;48.448;8.924;2023-06-04T18:56:52;6.20;;;4.20;;
1991;SDS011;997;48.448;8.924;2023-06-04T18:59:17;3.90;;;3.00;;
1991;SDS011;997;48.448;8.924;2023-06-04T19:01:44;5.87;;;3.53;;
1991;SDS011;997;48.448;8.924;2023-06-04T19:04:10;3.53;;;3.23;;
1991;SDS011;997;48.448;8.924;2023-06-04T19:06:39;3.90;;;3.60;;
1991;SDS011;997;48.448;8.924;2023-06-04T19:09:05;5.63;;;4.20;;
1991;SDS011;997;48.448;8.924;2023-06-04T19:11:31;3.50;;;2.97;;
1991;SDS011;997;48.448;8.924;2023-06-04T19:13:57;4.60;;;3.40;;
1991;SDS011;997;48.448;8.924;2023-06-04T19:16:22;3.70;;;3.37;;
1991;SDS011;997;48.448;8.924;2023-06-04T19:18:48;3.80;;;3.20;;
1991;SDS011;997;48.448;8.924;2023-06-04T19:21:34;7.80;;;2.93;;
1991;SDS011;997;48.448;8.924;2023-06-04T19:24:03;4.43;;;3.20;;
1991;SDS011;997;48.448;8.924;2023-06-04T19:27:17;5.70;;;2.67;;
1991;SDS011;997;48.448;8.924;2023-06-04T19:30:56;4.40;;;3.27;;
1991;SDS011;997;48.448;8.924;2023-06-04T19:33:23;3.27;;;3.00;;
1991;SDS011;997;48.448;8.924;2023-06-04T19:36:22;4.23;;;3.90;;
1991;SDS011;997;48.448;8.924;2023-06-04T19:39:32;3.20;;;2.90;;
1991;SDS011;997;48.448;8.924;2023-06-04T19:42:11;3.37;;;3.07;;
1991;SDS011;997;48.448;8.924;2023-06-04T19:44:47;4.47;;;4.07;;
1991;SDS011;997;48.448;8.924;2023-06-04T19:47:16;4.77;;;3.40;;
1991;SDS011;997;48.448;8.924;2023-06-04T19:49:48;3.43;;;3.13;;
1991;SDS011;997;48.448;8.924;2023-06-04T19:52:15;3.30;;;3.00;;
1991;SDS011;997;48.448;8.924;2023-06-04T19:54:42;3.90;;;3.50;;
1991;SDS011;997;48.448;8.924;2023-06-04T19:57:08;3.40;;;3.10;;
1991;SDS011;997;48.448;8.924;2023-06-04T19:59:37;2.87;;;2.67;;
1991;SDS011;997;48.448;8.924;2023-06-04T20:02:07;3.40;;;3.10;;
1991;SDS011;997;48.448;8.924;2023-06-04T20:04:51;2.93;;;2.63;;
1991;SDS011;997;48.448;8.924;2023-06-04T20:07:36;3.20;;;2.90;;
1991;SDS011;997;48.448;8.924;2023-06-04T20:10:37;3.30;;;3.00;;
1991;SDS011;997;48.448;8.924;2023-06-04T20:13:04;3.07;;;2.77;;
1991;SDS011;997;48.448;8.924;2023-06-04T20:15:39;3.07;;;2.70;;
1991;SDS011;997;48.448;8.924;2023-06-04T20:18:11;3.77;;;3.07;;
1991;SDS011;997;48.448;8.924;2023-06-04T20:21:18;3.53;;;2.30;;
1991;SDS011;997;48.448;8.924;2023-06-04T20:23:48;3.13;;;2.90;;
1991;SDS011;997;48.448;8.924;2023-06-04T20:26:24;3.43;;;3.10;;
1991;SDS011;997;48.448;8.924;2023-06-04T20:28:55;3.73;;;2.80;;
1991;SDS011;997;48.448;8.924;2023-06-04T20:31:31;2.60;;;2.40;;
1991;SDS011;997;48.448;8.924;2023-06-04T20:34:26;2.50;;;2.30;;
1991;SDS011;997;48.448;8.924;2023-06-04T20:36:52;5.00;;;2.77;;
1991;SDS011;997;48.448;8.924;2023-06-04T20:39:23;5.10;;;3.03;;
1991;SDS011;997;48.448;8.924;2023-06-04T20:41:55;4.63;;;2.80;;
1991;SDS011;997;48.448;8.924;2023-06-04T20:44:22;4.37;;;3.00;;
1991;SDS011;997;48.448;8.924;2023-06-04T20:46:48;3.60;;;3.30;;
1991;SDS011;997;48.448;8.924;2023-06-04T20:49:13;3.00;;;2.80;;
1991;SDS011;997;48.448;8.924;2023-06-04T20:51:39;5.00;;;4.00;;
1991;SDS011;997;48.448;8.924;2023-06-04T20:54:05;3.43;;;3.10;;
1991;SDS011;997;48.448;8.924;2023-06-04T20:56:31;2.77;;;2.57;;
1991;SDS011;997;48.448;8.924;2023-06-04T20:58:56;4.53;;;2.77;;
1991;SDS011;997;48.448;8.924;2023-06-04T21:01:22;3.50;;;3.20;;
1991;SDS011;997;48.448;8.924;2023-06-04T21:03:48;3.53;;;3.23;;
1991;SDS011;997;48.448;8.924;2023-06-04T21:06:14;3.80;;;3.40;;
1991;SDS011;997;48.448;8.924;2023-06-04T21:08:39;4.00;;;3.40;;
1991;SDS011;997;48.448;8.924;2023-06-04T21:11:05;2.80;;;2.60;;
1991;SDS011;997;48.448;8.924;2023-06-04T21:13:31;2.90;;;2.70;;
1991;SDS011;997;48.448;8.924;2023-06-04T21:15:57;3.37;;;3.07;;
1991;SDS011;997;48.448;8.924;2023-06-04T21:18:22;3.50;;;2.70;;
1991;SDS011;997;48.448;8.924;2023-06-04T21:20:48;4.80;;;3.43;;
1991;SDS011;997;48.448;8.924;2023-06-04T21:23:15;2.60;;;2.40;;
1991;SDS011;997;48.448;8.924;2023-06-04T21:25:40;4.17;;;3.20;;
1991;SDS011;997;48.448;8.924;2023-06-04T21:28:06;2.77;;;2.57;;
